sensor_id;sensor_type;location;lat;lon;timestamp;temperature;humidity
3051;DHT22;1535;51.098;6.414;2023-05-20T00:00:07;13.20;99.90
3051;DHT22;1535;51.098;6.414;2023-05-20T00:02:35;13.10;99.90
3051;DHT22;1535;51.098;6.414;2023-05-20T00:05:03;13.00;99.90
3051;DHT22;1535;51.098;6.414;2023-05-20T00:07:31;13.00;99.90
3051;DHT22;1535;51.098;6.414;2023-05-20T00:09:57;12.90;99.90
3051;DHT22;1535;51.098;6.414;2023-05-20T00:12:25;13.00;99.90
3051;DHT22;1535;51.098;6.414;2023-05-20T00:14:53;12.90;99.90
3051;DHT22;1535;51.098;6.414;2023-05-20T00:17:19;12.90;99.90
3051;DHT22;1535;51.098;6.414;2023-05-20T00:19:47;12.80;99.90
3051;DHT22;1535;51.098;6.414;2023-05-20T00:22:13;12.80;99.90
3051;DHT22;1535;51.098;6.414;2023-05-20T00:24:42;12.80;99.90
3051;DHT22;1535;51.098;6.414;2023-05-20T00:27:09;12.80;99.90
3051;DHT22;1535;51.098;6.414;2023-05-20T00:29:36;12.80;99.90
3051;DHT22;1535;51.098;6.414;2023-05-20T00:32:03;12.80;99.90
3051;DHT22;1535;51.098;6.414;2023-05-20T00:34:30;12.70;99.90
3051;DHT22;1535;51.098;6.414;2023-05-20T00:36:58;12.70;99.90
3051;DHT22;1535;51.098;6.414;2023-05-20T00:39:25;12.60;99.90
3051;DHT22;1535;51.098;6.414;2023-05-20T00:41:53;12.60;99.90
3051;DHT22;1535;51.098;6.414;2023-05-20T00:44:20;12.60;99.90
3051;DHT22;1535;51.098;6.414;2023-05-20T00:46:49;12.50;99.90
3051;DHT22;1535;51.098;6.414;2023-05-20T00:49:16;12.50;99.90
3051;DHT22;1535;51.098;6.414;2023-05-20T00:51:44;12.40;99.90
3051;DHT22;1535;51.098;6.414;2023-05-20T00:54:11;12.50;99.90
3051;DHT22;1535;51.098;6.414;2023-05-20T00:56:38;12.30;99.90
3051;DHT22;1535;51.098;6.414;2023-05-20T00:59:07;12.30;99.90
3051;DHT22;1535;51.098;6.414;2023-05-20T01:01:35;12.30;99.90
3051;DHT22;1535;51.098;6.414;2023-05-20T01:04:01;12.20;99.90
3051;DHT22;1535;51.098;6.414;2023-05-20T01:06:28;12.30;99.90
3051;DHT22;1535;51.098;6.414;2023-05-20T01:08:55;12.20;99.90
3051;DHT22;1535;51.098;6.414;2023-05-20T01:11:27;12.30;99.90
3051;DHT22;1535;51.098;6.414;2023-05-20T01:13:57;12.20;99.90
3051;DHT22;1535;51.098;6.414;2023-05-20T01:16:26;12.20;99.90
3051;DHT22;1535;51.098;6.414;2023-05-20T01:18:55;12.20;99.90
3051;DHT22;1535;51.098;6.414;2023-05-20T01:21:24;12.10;99.90
3051;DHT22;1535;51.098;6.414;2023-05-20T01:23:54;12.20;99.90
3051;DHT22;1535;51.098;6.414;2023-05-20T01:26:20;12.10;99.90
3051;DHT22;1535;51.098;6.414;2023-05-20T01:28:51;12.10;99.90
3051;DHT22;1535;51.098;6.414;2023-05-20T01:31:23;12.10;99.90
3051;DHT22;1535;51.098;6.414;2023-05-20T01:33:54;12.00;99.90
3051;DHT22;1535;51.098;6.414;2023-05-20T01:36:25;12.00;99.90
3051;DHT22;1535;51.098;6.414;2023-05-20T01:38:53;12.10;99.90
3051;DHT22;1535;51.098;6.414;2023-05-20T01:41:24;12.00;99.90
3051;DHT22;1535;51.098;6.414;2023-05-20T01:43:53;12.00;99.90
3051;DHT22;1535;51.098;6.414;2023-05-20T01:46:20;12.00;99.90
3051;DHT22;1535;51.098;6.414;2023-05-20T01:48:47;11.80;99.90
3051;DHT22;1535;51.098;6.414;2023-05-20T01:51:14;11.70;99.90
3051;DHT22;1535;51.098;6.414;2023-05-20T01:53:43;11.70;99.90
3051;DHT22;1535;51.098;6.414;2023-05-20T01:56:13;11.70;99.90
3051;DHT22;1535;51.098;6.414;2023-05-20T01:58:40;11.60;99.90
3051;DHT22;1535;51.098;6.414;2023-05-20T02:01:07;11.60;99.90
3051;DHT22;1535;51.098;6.414;2023-05-20T02:03:34;11.50;99.90
3051;DHT22;1535;51.098;6.414;2023-05-20T02:06:00;11.50;99.90
3051;DHT22;1535;51.098;6.414;2023-05-20T02:08:27;11.50;99.90
3051;DHT22;1535;51.098;6.414;2023-05-20T02:10:54;11.40;99.90
3051;DHT22;1535;51.098;6.414;2023-05-20T02:13:23;11.40;99.90
3051;DHT22;1535;51.098;6.414;2023-05-20T02:15:50;11.40;99.90
3051;DHT22;1535;51.098;6.414;2023-05-20T02:18:17;11.40;99.90
3051;DHT22;1535;51.098;6.414;2023-05-20T02:20:44;11.40;99.90
3051;DHT22;1535;51.098;6.414;2023-05-20T02:23:12;11.30;99.90
3051;DHT22;1535;51.098;6.414;2023-05-20T02:25:39;11.30;99.90
3051;DHT22;1535;51.098;6.414;2023-05-20T02:28:06;11.40;99.90
3051;DHT22;1535;51.098;6.414;2023-05-20T02:30:40;11.30;99.90
3051;DHT22;1535;51.098;6.414;2023-05-20T02:33:08;11.30;99.90
3051;DHT22;1535;51.098;6.414;2023-05-20T02:35:36;11.30;99.90
3051;DHT22;1535;51.098;6.414;2023-05-20T02:38:03;11.30;99.90
3051;DHT22;1535;51.098;6.414;2023-05-20T02:40:30;11.30;99.90
3051;DHT22;1535;51.098;6.414;2023-05-20T02:42:57;11.30;99.90
3051;DHT22;1535;51.098;6.414;2023-05-20T02:45:24;11.20;99.90
3051;DHT22;1535;51.098;6.414;2023-05-20T02:47:53;11.20;99.90
3051;DHT22;1535;51.098;6.414;2023-05-20T02:50:20;11.10;99.90
3051;DHT22;1535;51.098;6.414;2023-05-20T02:52:47;11.10;99.90
3051;DHT22;1535;51.098;6.414;2023-05-20T02:55:14;11.10;99.90
3051;DHT22;1535;51.098;6.414;2023-05-20T02:57:41;11.10;99.90
3051;DHT22;1535;51.098;6.414;2023-05-20T03:00:08;11.10;99.90
3051;DHT22;1535;51.098;6.414;2023-05-20T03:02:36;11.10;99.90
3051;DHT22;1535;51.098;6.414;2023-05-20T03:05:05;11.10;99.90
3051;DHT22;1535;51.098;6.414;2023-05-20T03:07:34;11.10;99.90
3051;DHT22;1535;51.098;6.414;2023-05-20T03:10:03;11.10;99.90
3051;DHT22;1535;51.098;6.414;2023-05-20T03:12:30;11.10;99.90
3051;DHT22;1535;51.098;6.414;2023-05-20T03:14:58;11.10;99.90
3051;DHT22;1535;51.098;6.414;2023-05-20T03:17:25;11.10;99.90
3051;DHT22;1535;51.098;6.414;2023-05-20T03:19:53;11.10;99.90
3051;DHT22;1535;51.098;6.414;2023-05-20T03:22:21;11.10;99.90
3051;DHT22;1535;51.098;6.414;2023-05-20T03:24:49;11.10;99.90
3051;DHT22;1535;51.098;6.414;2023-05-20T03:27:17;11.10;99.90
3051;DHT22;1535;51.098;6.414;2023-05-20T03:29:43;11.00;99.90
3051;DHT22;1535;51.098;6.414;2023-05-20T03:32:13;11.10;99.90
3051;DHT22;1535;51.098;6.414;2023-05-20T03:34:41;11.10;99.90
3051;DHT22;1535;51.098;6.414;2023-05-20T03:37:09;11.00;99.90
3051;DHT22;1535;51.098;6.414;2023-05-20T03:39:37;10.90;99.90
3051;DHT22;1535;51.098;6.414;2023-05-20T03:42:05;10.90;99.90
3051;DHT22;1535;51.098;6.414;2023-05-20T03:44:32;10.90;99.90
3051;DHT22;1535;51.098;6.414;2023-05-20T03:46:59;10.90;99.90
3051;DHT22;1535;51.098;6.414;2023-05-20T03:49:27;10.90;99.90
3051;DHT22;1535;51.098;6.414;2023-05-20T03:51:54;10.90;99.90
3051;DHT22;1535;51.098;6.414;2023-05-20T03:54:21;10.90;99.90
3051;DHT22;1535;51.098;6.414;2023-05-20T03:56:50;11.00;99.90
3051;DHT22;1535;51.098;6.414;2023-05-20T03:59:17;11.00;99.90
3051;DHT22;1535;51.098;6.414;2023-05-20T04:01:44;11.00;99.90
3051;DHT22;1535;51.098;6.414;2023-05-20T04:04:11;11.00;99.90
3051;DHT22;1535;51.098;6.414;2023-05-20T04:06:38;11.10;99.90
3051;DHT22;1535;51.098;6.414;2023-05-20T04:09:05;11.10;99.90
3051;DHT22;1535;51.098;6.414;2023-05-20T04:11:32;11.10;99.90
3051;DHT22;1535;51.098;6.414;2023-05-20T04:14:02;11.10;99.90
3051;DHT22;1535;51.098;6.414;2023-05-20T04:16:29;11.10;99.90
3051;DHT22;1535;51.098;6.414;2023-05-20T04:18:56;11.10;99.90
3051;DHT22;1535;51.098;6.414;2023-05-20T04:21:24;11.10;99.90
3051;DHT22;1535;51.098;6.414;2023-05-20T04:23:50;11.20;99.90
3051;DHT22;1535;51.098;6.414;2023-05-20T04:26:17;11.10;99.90
3051;DHT22;1535;51.098;6.414;2023-05-20T04:28:45;11.20;99.90
3051;DHT22;1535;51.098;6.414;2023-05-20T04:31:15;11.20;99.90
3051;DHT22;1535;51.098;6.414;2023-05-20T04:33:43;11.20;99.90
3051;DHT22;1535;51.098;6.414;2023-05-20T04:36:10;11.30;99.90
3051;DHT22;1535;51.098;6.414;2023-05-20T04:38:41;11.40;99.90
3051;DHT22;1535;51.098;6.414;2023-05-20T04:41:09;11.40;99.90
3051;DHT22;1535;51.098;6.414;2023-05-20T04:43:36;11.40;99.90
3051;DHT22;1535;51.098;6.414;2023-05-20T04:46:05;11.50;99.90
3051;DHT22;1535;51.098;6.414;2023-05-20T04:48:34;11.50;99.90
3051;DHT22;1535;51.098;6.414;2023-05-20T04:51:02;11.60;99.90
3051;DHT22;1535;51.098;6.414;2023-05-20T04:53:29;11.60;99.90
3051;DHT22;1535;51.098;6.414;2023-05-20T04:55:56;11.70;99.90
3051;DHT22;1535;51.098;6.414;2023-05-20T04:58:24;11.60;99.90
3051;DHT22;1535;51.098;6.414;2023-05-20T05:00:51;11.80;99.90
3051;DHT22;1535;51.098;6.414;2023-05-20T05:03:18;11.90;99.90
3051;DHT22;1535;51.098;6.414;2023-05-20T05:05:46;12.00;99.90
3051;DHT22;1535;51.098;6.414;2023-05-20T05:08:13;12.00;99.90
3051;DHT22;1535;51.098;6.414;2023-05-20T05:10:42;12.10;99.90
3051;DHT22;1535;51.098;6.414;2023-05-20T05:13:11;12.20;99.90
3051;DHT22;1535;51.098;6.414;2023-05-20T05:15:38;12.20;99.90
3051;DHT22;1535;51.098;6.414;2023-05-20T05:18:04;12.30;99.90
3051;DHT22;1535;51.098;6.414;2023-05-20T05:20:32;12.50;99.90
3051;DHT22;1535;51.098;6.414;2023-05-20T05:23:00;12.60;99.90
3051;DHT22;1535;51.098;6.414;2023-05-20T05:25:26;12.60;99.90
3051;DHT22;1535;51.098;6.414;2023-05-20T05:27:53;12.60;99.90
3051;DHT22;1535;51.098;6.414;2023-05-20T05:30:20;12.60;99.90
3051;DHT22;1535;51.098;6.414;2023-05-20T05:32:47;12.70;99.90
3051;DHT22;1535;51.098;6.414;2023-05-20T05:35:14;12.80;99.90
3051;DHT22;1535;51.098;6.414;2023-05-20T05:37:41;12.90;99.90
3051;DHT22;1535;51.098;6.414;2023-05-20T05:40:11;13.10;99.90
3051;DHT22;1535;51.098;6.414;2023-05-20T05:42:39;13.20;99.90
3051;DHT22;1535;51.098;6.414;2023-05-20T05:45:07;13.20;99.90
3051;DHT22;1535;51.098;6.414;2023-05-20T05:47:34;13.30;99.90
3051;DHT22;1535;51.098;6.414;2023-05-20T05:50:01;13.50;99.90
3051;DHT22;1535;51.098;6.414;2023-05-20T05:52:28;13.50;99.90
3051;DHT22;1535;51.098;6.414;2023-05-20T05:54:55;13.60;99.90
3051;DHT22;1535;51.098;6.414;2023-05-20T05:57:23;13.60;99.90
3051;DHT22;1535;51.098;6.414;2023-05-20T05:59:50;13.60;99.90
3051;DHT22;1535;51.098;6.414;2023-05-20T06:02:17;13.60;99.90
3051;DHT22;1535;51.098;6.414;2023-05-20T06:04:44;13.70;99.90
3051;DHT22;1535;51.098;6.414;2023-05-20T06:07:11;13.70;99.90
3051;DHT22;1535;51.098;6.414;2023-05-20T06:09:38;13.80;99.90
3051;DHT22;1535;51.098;6.414;2023-05-20T06:12:06;14.00;99.90
3051;DHT22;1535;51.098;6.414;2023-05-20T06:14:34;14.00;99.90
3051;DHT22;1535;51.098;6.414;2023-05-20T06:17:01;14.00;99.90
3051;DHT22;1535;51.098;6.414;2023-05-20T06:19:28;14.10;99.90
3051;DHT22;1535;51.098;6.414;2023-05-20T06:21:55;14.10;99.90
3051;DHT22;1535;51.098;6.414;2023-05-20T06:24:23;14.30;99.90
3051;DHT22;1535;51.098;6.414;2023-05-20T06:26:50;14.30;99.90
3051;DHT22;1535;51.098;6.414;2023-05-20T06:29:17;14.60;99.90
3051;DHT22;1535;51.098;6.414;2023-05-20T06:31:45;14.60;99.90
3051;DHT22;1535;51.098;6.414;2023-05-20T06:34:14;14.60;99.90
3051;DHT22;1535;51.098;6.414;2023-05-20T06:36:41;14.70;99.90
3051;DHT22;1535;51.098;6.414;2023-05-20T06:39:08;14.80;99.90
3051;DHT22;1535;51.098;6.414;2023-05-20T06:41:37;14.90;99.90
3051;DHT22;1535;51.098;6.414;2023-05-20T06:44:04;15.00;99.90
3051;DHT22;1535;51.098;6.414;2023-05-20T06:46:31;14.90;99.90
3051;DHT22;1535;51.098;6.414;2023-05-20T06:49:00;15.10;99.90
3051;DHT22;1535;51.098;6.414;2023-05-20T06:51:27;15.20;99.90
3051;DHT22;1535;51.098;6.414;2023-05-20T06:53:55;15.20;99.90
3051;DHT22;1535;51.098;6.414;2023-05-20T06:56:22;15.30;99.90
3051;DHT22;1535;51.098;6.414;2023-05-20T06:58:49;15.30;99.90
3051;DHT22;1535;51.098;6.414;2023-05-20T07:01:18;15.60;99.90
3051;DHT22;1535;51.098;6.414;2023-05-20T07:03:45;15.50;99.90
3051;DHT22;1535;51.098;6.414;2023-05-20T07:06:14;15.60;99.90
3051;DHT22;1535;51.098;6.414;2023-05-20T07:08:40;15.90;99.90
3051;DHT22;1535;51.098;6.414;2023-05-20T07:11:07;15.80;99.90
3051;DHT22;1535;51.098;6.414;2023-05-20T07:13:34;16.00;99.90
3051;DHT22;1535;51.098;6.414;2023-05-20T07:16:01;16.20;99.90
3051;DHT22;1535;51.098;6.414;2023-05-20T07:18:27;16.10;99.90
3051;DHT22;1535;51.098;6.414;2023-05-20T07:20:54;16.20;99.90
3051;DHT22;1535;51.098;6.414;2023-05-20T07:23:23;16.50;99.90
3051;DHT22;1535;51.098;6.414;2023-05-20T07:25:52;16.50;99.90
3051;DHT22;1535;51.098;6.414;2023-05-20T07:28:20;16.80;99.90
3051;DHT22;1535;51.098;6.414;2023-05-20T07:30:48;16.90;99.90
3051;DHT22;1535;51.098;6.414;2023-05-20T07:33:15;16.80;99.90
3051;DHT22;1535;51.098;6.414;2023-05-20T07:35:43;16.90;99.90
3051;DHT22;1535;51.098;6.414;2023-05-20T07:38:10;16.80;99.90
3051;DHT22;1535;51.098;6.414;2023-05-20T07:40:39;17.00;99.90
3051;DHT22;1535;51.098;6.414;2023-05-20T07:43:07;17.00;99.90
3051;DHT22;1535;51.098;6.414;2023-05-20T07:45:34;17.20;99.90
3051;DHT22;1535;51.098;6.414;2023-05-20T07:48:02;17.50;99.90
3051;DHT22;1535;51.098;6.414;2023-05-20T07:50:29;17.70;99.90
3051;DHT22;1535;51.098;6.414;2023-05-20T07:52:55;17.50;99.90
3051;DHT22;1535;51.098;6.414;2023-05-20T07:55:22;17.60;99.90
3051;DHT22;1535;51.098;6.414;2023-05-20T07:57:51;17.90;99.90
3051;DHT22;1535;51.098;6.414;2023-05-20T08:00:18;18.20;99.90
3051;DHT22;1535;51.098;6.414;2023-05-20T08:02:45;18.30;99.90
3051;DHT22;1535;51.098;6.414;2023-05-20T08:05:12;18.50;99.90
3051;DHT22;1535;51.098;6.414;2023-05-20T08:07:39;18.40;99.90
3051;DHT22;1535;51.098;6.414;2023-05-20T08:10:07;18.30;99.90
3051;DHT22;1535;51.098;6.414;2023-05-20T08:12:34;18.30;99.90
3051;DHT22;1535;51.098;6.414;2023-05-20T08:15:03;18.40;99.90
3051;DHT22;1535;51.098;6.414;2023-05-20T08:17:33;18.20;99.90
3051;DHT22;1535;51.098;6.414;2023-05-20T08:20:00;18.20;99.90
3051;DHT22;1535;51.098;6.414;2023-05-20T08:22:27;18.30;99.90
3051;DHT22;1535;51.098;6.414;2023-05-20T08:24:54;18.20;99.90
3051;DHT22;1535;51.098;6.414;2023-05-20T08:27:25;18.30;99.90
3051;DHT22;1535;51.098;6.414;2023-05-20T08:29:52;18.50;99.90
3051;DHT22;1535;51.098;6.414;2023-05-20T08:32:22;18.40;99.90
3051;DHT22;1535;51.098;6.414;2023-05-20T08:34:49;18.70;99.90
3051;DHT22;1535;51.098;6.414;2023-05-20T08:37:20;19.00;99.90
3051;DHT22;1535;51.098;6.414;2023-05-20T08:39:49;19.10;99.90
3051;DHT22;1535;51.098;6.414;2023-05-20T08:42:23;19.20;99.90
3051;DHT22;1535;51.098;6.414;2023-05-20T08:44:55;19.50;99.90
3051;DHT22;1535;51.098;6.414;2023-05-20T08:47:25;19.90;99.90
3051;DHT22;1535;51.098;6.414;2023-05-20T08:49:54;20.00;99.90
3051;DHT22;1535;51.098;6.414;2023-05-20T08:52:21;20.00;99.90
3051;DHT22;1535;51.098;6.414;2023-05-20T08:54:49;19.80;99.90
3051;DHT22;1535;51.098;6.414;2023-05-20T08:57:19;19.70;99.90
3051;DHT22;1535;51.098;6.414;2023-05-20T08:59:50;19.90;99.90
3051;DHT22;1535;51.098;6.414;2023-05-20T09:02:18;20.10;99.90
3051;DHT22;1535;51.098;6.414;2023-05-20T09:04:47;19.30;99.90
3051;DHT22;1535;51.098;6.414;2023-05-20T09:07:25;19.30;99.90
3051;DHT22;1535;51.098;6.414;2023-05-20T09:09:52;18.90;99.90
3051;DHT22;1535;51.098;6.414;2023-05-20T09:12:23;19.00;99.90
3051;DHT22;1535;51.098;6.414;2023-05-20T09:14:51;19.10;99.90
3051;DHT22;1535;51.098;6.414;2023-05-20T09:17:20;19.50;99.90
3051;DHT22;1535;51.098;6.414;2023-05-20T09:19:51;20.30;99.90
3051;DHT22;1535;51.098;6.414;2023-05-20T09:22:23;20.10;99.90
3051;DHT22;1535;51.098;6.414;2023-05-20T09:24:55;20.20;99.90
3051;DHT22;1535;51.098;6.414;2023-05-20T09:27:22;20.50;99.90
3051;DHT22;1535;51.098;6.414;2023-05-20T09:29:51;21.10;99.90
3051;DHT22;1535;51.098;6.414;2023-05-20T09:32:21;20.80;99.90
3051;DHT22;1535;51.098;6.414;2023-05-20T09:34:54;20.60;99.90
3051;DHT22;1535;51.098;6.414;2023-05-20T09:37:24;20.30;99.90
3051;DHT22;1535;51.098;6.414;2023-05-20T09:40:03;20.50;99.90
3051;DHT22;1535;51.098;6.414;2023-05-20T09:42:37;21.00;99.90
3051;DHT22;1535;51.098;6.414;2023-05-20T09:45:06;21.20;99.90
3051;DHT22;1535;51.098;6.414;2023-05-20T09:47:39;20.50;99.90
3051;DHT22;1535;51.098;6.414;2023-05-20T09:50:09;20.10;99.90
3051;DHT22;1535;51.098;6.414;2023-05-20T09:52:37;20.50;99.90
3051;DHT22;1535;51.098;6.414;2023-05-20T09:55:08;20.30;99.90
3051;DHT22;1535;51.098;6.414;2023-05-20T09:57:38;20.20;99.90
3051;DHT22;1535;51.098;6.414;2023-05-20T10:00:06;20.90;99.90
3051;DHT22;1535;51.098;6.414;2023-05-20T10:02:35;21.80;99.90
3051;DHT22;1535;51.098;6.414;2023-05-20T10:05:05;21.70;99.90
3051;DHT22;1535;51.098;6.414;2023-05-20T10:07:58;21.70;99.90
3051;DHT22;1535;51.098;6.414;2023-05-20T10:10:35;21.90;99.90
3051;DHT22;1535;51.098;6.414;2023-05-20T10:13:16;21.60;99.90
3051;DHT22;1535;51.098;6.414;2023-05-20T10:15:57;22.20;99.90
3051;DHT22;1535;51.098;6.414;2023-05-20T10:18:39;22.70;99.90
3051;DHT22;1535;51.098;6.414;2023-05-20T10:21:17;22.90;99.90
3051;DHT22;1535;51.098;6.414;2023-05-20T10:23:49;23.00;99.90
3051;DHT22;1535;51.098;6.414;2023-05-20T10:26:18;22.60;99.90
3051;DHT22;1535;51.098;6.414;2023-05-20T10:28:46;22.40;99.90
3051;DHT22;1535;51.098;6.414;2023-05-20T10:31:17;22.30;99.90
3051;DHT22;1535;51.098;6.414;2023-05-20T10:33:46;22.30;99.90
3051;DHT22;1535;51.098;6.414;2023-05-20T10:36:24;22.30;99.90
3051;DHT22;1535;51.098;6.414;2023-05-20T10:38:58;22.20;99.90
3051;DHT22;1535;51.098;6.414;2023-05-20T10:41:27;21.80;99.90
3051;DHT22;1535;51.098;6.414;2023-05-20T10:44:05;22.10;99.90
3051;DHT22;1535;51.098;6.414;2023-05-20T10:46:36;22.30;99.90
3051;DHT22;1535;51.098;6.414;2023-05-20T10:49:03;23.10;99.90
3051;DHT22;1535;51.098;6.414;2023-05-20T10:51:35;23.40;99.90
3051;DHT22;1535;51.098;6.414;2023-05-20T10:54:04;23.10;99.90
3051;DHT22;1535;51.098;6.414;2023-05-20T10:56:31;23.10;99.90
3051;DHT22;1535;51.098;6.414;2023-05-20T10:59:00;22.70;99.90
3051;DHT22;1535;51.098;6.414;2023-05-20T11:01:30;22.90;99.90
3051;DHT22;1535;51.098;6.414;2023-05-20T11:03:58;23.00;99.90
3051;DHT22;1535;51.098;6.414;2023-05-20T11:06:30;23.30;99.90
3051;DHT22;1535;51.098;6.414;2023-05-20T11:09:06;23.00;99.90
3051;DHT22;1535;51.098;6.414;2023-05-20T11:11:33;22.80;99.90
3051;DHT22;1535;51.098;6.414;2023-05-20T11:13:59;22.80;99.90
3051;DHT22;1535;51.098;6.414;2023-05-20T11:16:26;22.70;99.90
3051;DHT22;1535;51.098;6.414;2023-05-20T11:18:53;23.40;99.90
3051;DHT22;1535;51.098;6.414;2023-05-20T11:21:21;23.50;99.90
3051;DHT22;1535;51.098;6.414;2023-05-20T11:23:50;24.30;99.90
3051;DHT22;1535;51.098;6.414;2023-05-20T11:26:19;24.40;99.90
3051;DHT22;1535;51.098;6.414;2023-05-20T11:28:46;24.20;99.90
3051;DHT22;1535;51.098;6.414;2023-05-20T11:31:13;24.00;99.90
3051;DHT22;1535;51.098;6.414;2023-05-20T11:33:40;24.10;99.40
3051;DHT22;1535;51.098;6.414;2023-05-20T11:36:08;23.60;99.90
3051;DHT22;1535;51.098;6.414;2023-05-20T11:38:39;24.30;99.90
3051;DHT22;1535;51.098;6.414;2023-05-20T11:41:06;24.40;99.40
3051;DHT22;1535;51.098;6.414;2023-05-20T11:43:34;23.80;99.90
3051;DHT22;1535;51.098;6.414;2023-05-20T11:46:03;24.10;99.70
3051;DHT22;1535;51.098;6.414;2023-05-20T11:48:31;23.80;99.70
3051;DHT22;1535;51.098;6.414;2023-05-20T11:50:58;24.50;99.50
3051;DHT22;1535;51.098;6.414;2023-05-20T11:53:25;25.20;99.20
3051;DHT22;1535;51.098;6.414;2023-05-20T11:55:54;25.80;97.70
3051;DHT22;1535;51.098;6.414;2023-05-20T11:58:22;25.70;96.40
3051;DHT22;1535;51.098;6.414;2023-05-20T12:00:51;25.80;96.40
3051;DHT22;1535;51.098;6.414;2023-05-20T12:03:18;25.20;96.20
3051;DHT22;1535;51.098;6.414;2023-05-20T12:05:46;24.30;97.10
3051;DHT22;1535;51.098;6.414;2023-05-20T12:08:13;24.00;98.10
3051;DHT22;1535;51.098;6.414;2023-05-20T12:10:40;23.20;98.50
3051;DHT22;1535;51.098;6.414;2023-05-20T12:13:09;23.10;99.20
3051;DHT22;1535;51.098;6.414;2023-05-20T12:15:38;23.70;99.40
3051;DHT22;1535;51.098;6.414;2023-05-20T12:18:08;24.30;98.70
3051;DHT22;1535;51.098;6.414;2023-05-20T12:20:35;24.80;98.20
3051;DHT22;1535;51.098;6.414;2023-05-20T12:23:03;24.80;97.50
3051;DHT22;1535;51.098;6.414;2023-05-20T12:25:30;24.30;98.10
3051;DHT22;1535;51.098;6.414;2023-05-20T12:28:00;24.30;98.10
3051;DHT22;1535;51.098;6.414;2023-05-20T12:30:26;24.70;98.60
3051;DHT22;1535;51.098;6.414;2023-05-20T12:32:53;24.90;98.00
3051;DHT22;1535;51.098;6.414;2023-05-20T12:35:24;24.80;97.50
3051;DHT22;1535;51.098;6.414;2023-05-20T12:37:50;25.00;97.40
3051;DHT22;1535;51.098;6.414;2023-05-20T12:40:19;25.60;97.50
3051;DHT22;1535;51.098;6.414;2023-05-20T12:42:45;25.90;96.40
3051;DHT22;1535;51.098;6.414;2023-05-20T12:45:13;25.80;96.70
3051;DHT22;1535;51.098;6.414;2023-05-20T12:47:39;25.40;96.70
3051;DHT22;1535;51.098;6.414;2023-05-20T12:50:07;26.00;96.40
3051;DHT22;1535;51.098;6.414;2023-05-20T12:52:36;25.90;96.70
3051;DHT22;1535;51.098;6.414;2023-05-20T12:55:04;26.20;94.90
3051;DHT22;1535;51.098;6.414;2023-05-20T12:57:38;26.50;94.30
3051;DHT22;1535;51.098;6.414;2023-05-20T13:00:06;25.80;94.80
3051;DHT22;1535;51.098;6.414;2023-05-20T13:02:33;26.00;95.80
3051;DHT22;1535;51.098;6.414;2023-05-20T13:05:00;25.70;95.20
3051;DHT22;1535;51.098;6.414;2023-05-20T13:07:27;25.40;94.90
3051;DHT22;1535;51.098;6.414;2023-05-20T13:09:55;25.80;95.80
3051;DHT22;1535;51.098;6.414;2023-05-20T13:12:22;25.80;95.40
3051;DHT22;1535;51.098;6.414;2023-05-20T13:14:49;25.70;95.50
3051;DHT22;1535;51.098;6.414;2023-05-20T13:17:17;25.30;96.10
3051;DHT22;1535;51.098;6.414;2023-05-20T13:19:44;25.40;95.60
3051;DHT22;1535;51.098;6.414;2023-05-20T13:22:11;25.10;96.00
3051;DHT22;1535;51.098;6.414;2023-05-20T13:24:39;25.80;96.70
3051;DHT22;1535;51.098;6.414;2023-05-20T13:27:07;25.80;94.90
3051;DHT22;1535;51.098;6.414;2023-05-20T13:29:35;24.80;95.70
3051;DHT22;1535;51.098;6.414;2023-05-20T13:32:02;24.30;96.10
3051;DHT22;1535;51.098;6.414;2023-05-20T13:34:29;24.60;96.40
3051;DHT22;1535;51.098;6.414;2023-05-20T13:36:56;24.20;96.10
3051;DHT22;1535;51.098;6.414;2023-05-20T13:39:23;24.30;96.70
3051;DHT22;1535;51.098;6.414;2023-05-20T13:41:51;24.70;97.10
3051;DHT22;1535;51.098;6.414;2023-05-20T13:44:21;24.70;97.00
3051;DHT22;1535;51.098;6.414;2023-05-20T13:46:48;25.10;96.70
3051;DHT22;1535;51.098;6.414;2023-05-20T13:49:16;25.10;96.30
3051;DHT22;1535;51.098;6.414;2023-05-20T13:51:43;25.30;96.70
3051;DHT22;1535;51.098;6.414;2023-05-20T13:54:10;25.30;95.70
3051;DHT22;1535;51.098;6.414;2023-05-20T13:56:37;24.70;95.50
3051;DHT22;1535;51.098;6.414;2023-05-20T13:59:04;24.30;96.50
3051;DHT22;1535;51.098;6.414;2023-05-20T14:01:32;24.40;96.80
3051;DHT22;1535;51.098;6.414;2023-05-20T14:04:00;24.60;96.80
3051;DHT22;1535;51.098;6.414;2023-05-20T14:06:27;24.10;97.00
3051;DHT22;1535;51.098;6.414;2023-05-20T14:08:55;23.90;98.00
3051;DHT22;1535;51.098;6.414;2023-05-20T14:11:23;23.80;97.80
3051;DHT22;1535;51.098;6.414;2023-05-20T14:13:50;23.70;97.80
3051;DHT22;1535;51.098;6.414;2023-05-20T14:16:17;23.70;98.40
3051;DHT22;1535;51.098;6.414;2023-05-20T14:18:45;23.30;98.60
3051;DHT22;1535;51.098;6.414;2023-05-20T14:21:12;23.20;98.00
3051;DHT22;1535;51.098;6.414;2023-05-20T14:23:39;23.20;98.50
3051;DHT22;1535;51.098;6.414;2023-05-20T14:26:08;23.40;98.60
3051;DHT22;1535;51.098;6.414;2023-05-20T14:28:35;23.60;98.40
3051;DHT22;1535;51.098;6.414;2023-05-20T14:31:03;23.60;98.00
3051;DHT22;1535;51.098;6.414;2023-05-20T14:33:30;23.60;97.90
3051;DHT22;1535;51.098;6.414;2023-05-20T14:35:59;23.20;97.70
3051;DHT22;1535;51.098;6.414;2023-05-20T14:38:28;22.80;98.80
3051;DHT22;1535;51.098;6.414;2023-05-20T14:40:55;23.00;99.10
3051;DHT22;1535;51.098;6.414;2023-05-20T14:43:22;23.40;99.20
3051;DHT22;1535;51.098;6.414;2023-05-20T14:45:49;23.60;98.10
3051;DHT22;1535;51.098;6.414;2023-05-20T14:48:16;23.10;98.60
3051;DHT22;1535;51.098;6.414;2023-05-20T14:50:42;22.80;98.90
3051;DHT22;1535;51.098;6.414;2023-05-20T14:53:10;22.70;98.60
3051;DHT22;1535;51.098;6.414;2023-05-20T14:55:37;22.70;99.40
3051;DHT22;1535;51.098;6.414;2023-05-20T14:58:04;22.60;99.80
3051;DHT22;1535;51.098;6.414;2023-05-20T15:00:31;22.80;99.70
3051;DHT22;1535;51.098;6.414;2023-05-20T15:02:59;23.00;99.00
3051;DHT22;1535;51.098;6.414;2023-05-20T15:05:26;23.10;98.40
3051;DHT22;1535;51.098;6.414;2023-05-20T15:07:53;23.10;99.20
3051;DHT22;1535;51.098;6.414;2023-05-20T15:10:22;22.90;99.40
3051;DHT22;1535;51.098;6.414;2023-05-20T15:12:49;22.60;99.20
3051;DHT22;1535;51.098;6.414;2023-05-20T15:15:19;22.70;99.40
3051;DHT22;1535;51.098;6.414;2023-05-20T15:17:45;22.50;99.30
3051;DHT22;1535;51.098;6.414;2023-05-20T15:20:12;22.70;99.10
3051;DHT22;1535;51.098;6.414;2023-05-20T15:22:39;22.50;99.50
3051;DHT22;1535;51.098;6.414;2023-05-20T15:25:08;21.90;99.50
3051;DHT22;1535;51.098;6.414;2023-05-20T15:27:36;21.70;99.90
3051;DHT22;1535;51.098;6.414;2023-05-20T15:30:03;21.80;99.90
3051;DHT22;1535;51.098;6.414;2023-05-20T15:32:31;21.60;99.90
3051;DHT22;1535;51.098;6.414;2023-05-20T15:34:57;21.60;99.90
3051;DHT22;1535;51.098;6.414;2023-05-20T15:37:25;21.60;99.90
3051;DHT22;1535;51.098;6.414;2023-05-20T15:39:52;21.50;99.90
3051;DHT22;1535;51.098;6.414;2023-05-20T15:42:20;21.60;99.90
3051;DHT22;1535;51.098;6.414;2023-05-20T15:44:48;21.80;99.90
3051;DHT22;1535;51.098;6.414;2023-05-20T15:47:15;22.10;99.90
3051;DHT22;1535;51.098;6.414;2023-05-20T15:49:42;22.10;99.90
3051;DHT22;1535;51.098;6.414;2023-05-20T15:52:09;21.60;99.90
3051;DHT22;1535;51.098;6.414;2023-05-20T15:54:36;21.70;99.90
3051;DHT22;1535;51.098;6.414;2023-05-20T15:57:03;21.70;99.90
3051;DHT22;1535;51.098;6.414;2023-05-20T15:59:30;21.60;99.90
3051;DHT22;1535;51.098;6.414;2023-05-20T16:01:59;21.20;99.90
3051;DHT22;1535;51.098;6.414;2023-05-20T16:04:26;21.20;99.90
3051;DHT22;1535;51.098;6.414;2023-05-20T16:06:53;21.20;99.90